Terminal Aerodrome Forecast
Issued by NWS Wilmington, OH

Current Version | Previous Version | Graphics & Text | Print | Product List | Glossary On
Versions: 1 2 3 4 5 6 7 8 9 10 11 12 13 14 15 16 17 18 19 20 21 22 23 24 25 26 27 28 29 30 31 32 33 34
039
FTUS41 KILN 222320
TAFILN
TAF
KILN 222320Z 2300/2324 19012KT P6SM -SHRA BKN025 OVC035
     FM230300 19011KT P6SM VCSH BKN015 OVC022
      TEMPO 2306/2310 BKN008 OVC015
     FM231300 22014G20KT 5SM SHRA BR OVC015
      TEMPO 2314/2318 3SM +SHRA OVC010=

USA.gov is the U.S. government's official web portal to all federal, state and local government web resources and services.